createdAt,value
2019-03-22T00:00:20.515Z,100022.41
2019-03-22T00:02:50.186Z,100017.04
2019-03-22T00:05:19.665Z,100017.59
2019-03-22T00:07:49.258Z,100018.45
2019-03-22T00:10:18.738Z,100013.94
2019-03-22T00:12:48.225Z,100018.80
2019-03-22T00:15:19.307Z,100013.98
2019-03-22T00:17:48.807Z,100014.09
2019-03-22T00:20:18.293Z,100017.68
2019-03-22T00:22:47.851Z,100014.53
2019-03-22T00:25:17.350Z,100017.16
2019-03-22T00:27:46.838Z,100014.88
2019-03-22T00:30:16.503Z,100015.36
2019-03-22T00:33:05.297Z,100021.34
2019-03-22T00:35:34.825Z,100014.86
2019-03-22T00:38:05.668Z,100011.62
2019-03-22T00:40:54.501Z,100008.66
2019-03-22T00:43:23.987Z,100007.73
2019-03-22T00:45:53.649Z,100006.75
2019-03-22T00:48:24.934Z,100009.13
2019-03-22T00:50:55.697Z,100005.01
2019-03-22T00:53:25.172Z,99997.62
2019-03-22T00:55:54.696Z,99996.06
2019-03-22T00:58:24.144Z,99995.53
2019-03-22T01:00:53.602Z,99985.61
2019-03-22T01:03:23.098Z,99985.68
2019-03-22T01:05:52.549Z,99983.97
2019-03-22T01:08:22.368Z,99979.91
2019-03-22T01:10:51.940Z,99989.48
2019-03-22T01:13:21.419Z,99992.78
2019-03-22T01:15:50.875Z,99999.55
2019-03-22T01:18:20.383Z,100000.66
2019-03-22T01:20:49.862Z,99994.05
2019-03-22T01:23:19.318Z,99994.75
2019-03-22T01:25:48.837Z,99985.84
2019-03-22T01:28:18.296Z,99985.73
2019-03-22T01:30:47.759Z,99986.73
2019-03-22T01:33:17.280Z,99977.83
2019-03-22T01:35:46.758Z,99979.63
2019-03-22T01:38:16.215Z,99979.77
2019-03-22T01:40:48.420Z,99978.98
2019-03-22T01:43:17.899Z,99985.73
2019-03-22T01:45:47.445Z,99988.58
2019-03-22T01:48:16.928Z,99980.82
2019-03-22T01:50:46.417Z,99980.80
2019-03-22T01:53:15.872Z,99974.11
2019-03-22T01:55:45.368Z,99978.03
2019-03-22T01:58:14.840Z,99976.89
2019-03-22T02:00:45.972Z,99975.67
2019-03-22T02:03:15.564Z,99974.98
2019-03-22T02:05:45.196Z,99979.14
2019-03-22T02:08:14.690Z,99974.45
2019-03-22T02:10:44.172Z,99983.30
2019-03-22T02:13:13.628Z,99973.85
2019-03-22T02:15:43.109Z,99969.45
2019-03-22T02:18:12.611Z,99965.61
2019-03-22T02:20:42.092Z,99971.42
2019-03-22T02:23:11.611Z,99971.40
2019-03-22T02:25:41.111Z,99968.16
2019-03-22T02:28:10.661Z,99975.12
2019-03-22T02:30:40.141Z,99975.64
2019-03-22T02:33:09.628Z,99980.18
2019-03-22T02:35:39.093Z,99978.30
2019-03-22T02:38:08.549Z,99984.64
2019-03-22T02:40:38.068Z,99981.89
2019-03-22T02:43:07.538Z,99975.91
2019-03-22T02:45:37.001Z,99978.86
2019-03-22T02:48:06.646Z,99980.17
2019-03-22T02:50:36.101Z,99983.97
2019-03-22T02:53:05.570Z,99981.66
2019-03-22T02:55:36.437Z,99982.16
2019-03-22T02:58:19.658Z,99981.62
2019-03-22T03:00:37.356Z,99976.36
2019-03-22T03:03:06.876Z,99979.36
2019-03-22T03:05:36.328Z,99974.99
2019-03-22T03:08:05.977Z,99978.27
2019-03-22T03:10:35.520Z,99981.03
2019-03-22T03:13:24.342Z,99982.25
2019-03-22T03:15:53.849Z,99977.48
2019-03-22T03:18:23.327Z,99978.39
2019-03-22T03:20:52.800Z,99972.95
2019-03-22T03:23:22.502Z,99974.38
2019-03-22T03:25:51.977Z,99976.84
2019-03-22T03:28:35.661Z,99973.34
2019-03-22T03:30:52.690Z,99971.50
2019-03-22T03:33:22.150Z,99969.41
2019-03-22T03:35:51.662Z,99967.02
2019-03-22T03:38:21.166Z,99966.30
2019-03-22T03:40:50.623Z,99974.88
2019-03-22T03:43:21.598Z,99971.67
2019-03-22T03:45:51.116Z,99971.56
2019-03-22T03:48:39.870Z,99978.77
2019-03-22T03:51:09.376Z,99974.91
2019-03-22T03:53:38.860Z,99975.11
2019-03-22T03:56:08.811Z,99980.92
2019-03-22T03:58:51.453Z,99980.28
2019-03-22T04:01:15.656Z,99982.47
2019-03-22T04:03:45.193Z,99982.62
2019-03-22T04:06:33.993Z,99976.33
2019-03-22T04:09:04.566Z,99981.59
2019-03-22T04:11:34.053Z,99977.73
2019-03-22T04:14:03.595Z,99980.94
2019-03-22T04:16:33.106Z,99982.03
2019-03-22T04:19:02.629Z,99980.63
2019-03-22T04:21:32.110Z,99982.56
2019-03-22T04:24:01.579Z,99981.84
2019-03-22T04:26:31.049Z,99972.69
2019-03-22T04:29:07.463Z,99972.73
2019-03-22T04:31:31.744Z,99973.91
2019-03-22T04:34:01.230Z,99982.33
2019-03-22T04:36:30.747Z,99984.64
2019-03-22T04:39:00.256Z,99976.68
2019-03-22T04:41:29.723Z,99976.59
2019-03-22T04:43:59.188Z,99975.77
2019-03-22T04:46:29.593Z,99971.08
2019-03-22T04:49:00.485Z,99973.86
2019-03-22T04:51:32.075Z,99975.42
2019-03-22T04:54:04.380Z,99982.32
2019-03-22T04:56:37.853Z,99978.86
2019-03-22T04:59:19.159Z,99978.34
2019-03-22T05:01:47.242Z,99980.61
2019-03-22T05:04:18.862Z,99980.67
2019-03-22T05:06:51.154Z,99982.44
2019-03-22T05:09:25.340Z,99980.52
2019-03-22T05:11:56.333Z,99981.25
2019-03-22T05:14:26.812Z,99985.27
2019-03-22T05:16:58.049Z,99984.92
2019-03-22T05:19:31.646Z,99986.13
2019-03-22T05:22:04.265Z,99985.98
2019-03-22T05:24:36.661Z,99984.83
2019-03-22T05:27:26.720Z,99991.28
2019-03-22T05:29:59.089Z,100000.03
2019-03-22T05:32:28.804Z,99999.59
2019-03-22T05:34:58.353Z,100002.06
2019-03-22T05:37:27.807Z,99999.52
2019-03-22T05:39:57.290Z,99997.95
2019-03-22T05:42:26.794Z,100005.81
2019-03-22T05:44:56.258Z,100000.88
2019-03-22T05:47:25.736Z,99998.11
2019-03-22T05:49:55.235Z,99994.61
2019-03-22T05:52:24.704Z,99994.66
2019-03-22T05:54:54.261Z,100003.86
2019-03-22T05:57:24.444Z,100003.47
2019-03-22T05:59:53.931Z,100002.22
2019-03-22T06:02:23.394Z,99996.35
2019-03-22T06:04:53.257Z,100001.94
2019-03-22T06:07:22.754Z,100001.44
2019-03-22T06:09:52.293Z,100004.50
2019-03-22T06:12:21.781Z,100005.23
2019-03-22T06:14:51.268Z,100010.52
2019-03-22T06:17:50.984Z,100010.00
2019-03-22T06:20:11.937Z,100013.22
2019-03-22T06:23:01.061Z,100013.47
2019-03-22T06:25:30.554Z,100018.23
2019-03-22T06:28:00.043Z,100010.39
2019-03-22T06:30:29.545Z,100004.94
2019-03-22T06:32:59.005Z,100010.05
2019-03-22T06:35:28.483Z,100005.80
2019-03-22T06:37:57.996Z,99995.37
2019-03-22T06:40:27.502Z,99990.33
2019-03-22T06:42:57.212Z,99990.53
2019-03-22T06:45:26.740Z,99989.31
2019-03-22T06:48:15.495Z,99979.87
2019-03-22T06:50:45.001Z,99970.84
2019-03-22T06:53:14.575Z,99962.00
2019-03-22T06:55:44.529Z,99951.14
2019-03-22T06:58:14.001Z,99944.95
2019-03-22T07:00:43.536Z,99929.95
2019-03-22T07:03:13.016Z,99923.93
2019-03-22T07:05:42.443Z,99922.22
2019-03-22T07:08:13.410Z,99918.92
2019-03-22T07:10:42.907Z,99914.86
2019-03-22T07:13:31.724Z,99914.12
2019-03-22T07:16:01.216Z,99903.42
2019-03-22T07:18:30.711Z,99904.66
2019-03-22T07:21:00.201Z,99906.52
2019-03-22T07:23:29.696Z,99899.89
2019-03-22T07:26:18.520Z,99900.26
2019-03-22T07:28:48.057Z,99901.02
2019-03-22T07:31:17.639Z,99893.17
2019-03-22T07:33:47.153Z,99930.06
2019-03-22T07:36:35.950Z,99919.00
2019-03-22T07:39:08.915Z,99902.80
2019-03-22T07:41:38.391Z,99889.17
2019-03-22T07:44:07.898Z,99876.23
2019-03-22T07:46:37.577Z,99867.65
2019-03-22T07:49:07.046Z,99855.45
2019-03-22T07:51:36.542Z,99843.95
2019-03-22T07:54:06.213Z,99842.66
2019-03-22T07:56:35.825Z,99851.34
2019-03-22T07:59:05.347Z,99883.31
2019-03-22T08:01:46.951Z,99889.03
2019-03-22T08:04:16.445Z,99864.63
2019-03-22T08:06:45.944Z,99845.22
2019-03-22T08:09:34.753Z,99764.66
2019-03-22T08:12:04.394Z,99840.58
2019-03-22T08:14:33.865Z,99842.52
2019-03-22T08:17:03.732Z,99852.25
2019-03-22T08:19:33.299Z,99833.52
2019-03-22T08:22:03.009Z,99834.30
2019-03-22T08:24:32.557Z,99828.25
2019-03-22T08:27:21.713Z,99814.50
2019-03-22T08:29:51.238Z,99812.23
2019-03-22T08:32:40.013Z,99814.71
2019-03-22T08:35:09.800Z,99811.32
2019-03-22T08:37:58.658Z,99826.03
2019-03-22T08:40:28.242Z,99838.27
2019-03-22T08:42:57.756Z,99829.09
2019-03-22T08:45:27.246Z,99823.97
2019-03-22T08:47:56.775Z,99812.59
2019-03-22T08:50:26.338Z,99823.53
2019-03-22T08:52:55.829Z,99842.06
2019-03-22T08:55:25.477Z,99857.13
2019-03-22T08:57:54.963Z,99841.78
2019-03-22T09:00:24.767Z,99850.42
2019-03-22T09:02:54.293Z,99831.55
2019-03-22T09:05:23.764Z,99832.48
2019-03-22T09:07:53.287Z,99828.17
2019-03-22T09:10:22.812Z,99843.81
2019-03-22T09:12:52.337Z,99848.45
2019-03-22T09:15:21.853Z,99830.39
2019-03-22T09:17:51.490Z,99823.16
2019-03-22T09:20:20.950Z,99843.00
2019-03-22T09:22:50.418Z,99836.95
2019-03-22T09:25:19.960Z,99830.02
2019-03-22T09:27:49.531Z,99809.95
2019-03-22T09:30:19.244Z,99814.02
2019-03-22T09:33:08.090Z,99834.46
2019-03-22T09:35:37.555Z,99810.19
2019-03-22T09:38:12.667Z,99795.85
2019-03-22T09:40:38.292Z,99794.52
2019-03-22T09:43:07.884Z,99799.09
2019-03-22T09:45:37.406Z,99790.69
2019-03-22T09:48:26.267Z,99808.34
2019-03-22T09:50:55.812Z,99800.50
2019-03-22T09:53:25.316Z,99780.30
2019-03-22T09:55:54.802Z,99770.70
2019-03-22T09:58:24.273Z,99774.34
2019-03-22T10:00:53.909Z,99776.78
2019-03-22T10:03:23.919Z,99783.25
2019-03-22T10:05:53.391Z,99781.77
2019-03-22T10:08:22.884Z,99779.60
2019-03-22T10:10:52.394Z,99776.75
2019-03-22T10:13:21.881Z,99781.28
2019-03-22T10:15:51.400Z,99788.32
2019-03-22T10:18:21.000Z,99782.06
2019-03-22T10:20:50.436Z,99787.98
2019-03-22T10:23:22.303Z,99784.22
2019-03-22T10:25:51.182Z,99770.14
2019-03-22T10:28:20.849Z,99769.16
2019-03-22T10:30:50.285Z,99764.55
2019-03-22T10:33:23.021Z,99789.71
2019-03-22T10:36:10.396Z,99769.14
2019-03-22T10:38:39.948Z,99776.62
2019-03-22T10:41:09.384Z,99772.52
2019-03-22T10:43:38.944Z,99762.98
2019-03-22T10:46:08.393Z,99762.33
2019-03-22T10:48:37.863Z,99763.89
2019-03-22T10:51:07.332Z,99748.64
2019-03-22T10:53:56.197Z,99747.74
2019-03-22T10:56:25.634Z,99743.77
2019-03-22T10:58:55.170Z,99736.95
2019-03-22T11:01:24.677Z,99739.83
2019-03-22T11:03:54.302Z,99734.83
2019-03-22T11:06:26.357Z,99722.47
2019-03-22T11:08:55.239Z,99730.41
2019-03-22T11:11:24.771Z,99725.09
2019-03-22T11:13:54.270Z,99720.27
2019-03-22T11:16:23.822Z,99719.59
2019-03-22T11:18:53.276Z,99713.22
2019-03-22T11:21:22.754Z,99714.89
2019-03-22T11:23:52.289Z,99717.09
2019-03-22T11:26:21.760Z,99691.80
2019-03-22T11:28:51.256Z,99713.25
2019-03-22T11:31:28.116Z,99720.23
2019-03-22T11:34:11.354Z,99712.98
2019-03-22T11:36:41.079Z,99707.58
2019-03-22T11:39:15.879Z,99708.88
2019-03-22T11:41:44.495Z,99708.59
2019-03-22T11:44:14.194Z,99706.13
2019-03-22T11:46:43.762Z,99705.30
2019-03-22T11:49:32.607Z,99714.22
2019-03-22T11:52:02.123Z,99700.36
2019-03-22T11:54:31.630Z,99713.37
2019-03-22T11:57:01.544Z,99698.27
2019-03-22T11:59:31.009Z,99686.43
2019-03-22T12:02:22.498Z,99678.57
2019-03-22T12:04:51.355Z,99697.23
2019-03-22T12:07:20.848Z,99690.05
2019-03-22T12:09:50.361Z,99681.06
2019-03-22T12:12:19.858Z,99682.34
2019-03-22T12:14:50.912Z,99677.74
2019-03-22T12:17:20.425Z,99677.05
2019-03-22T12:19:49.925Z,99667.94
2019-03-22T12:22:19.411Z,99665.22
2019-03-22T12:24:48.894Z,99670.57
2019-03-22T12:27:18.429Z,99666.94
2019-03-22T12:29:48.025Z,99656.68
2019-03-22T12:32:17.638Z,99658.91
2019-03-22T12:34:47.121Z,99663.05
2019-03-22T12:37:16.649Z,99664.76
2019-03-22T12:39:46.746Z,99651.17
2019-03-22T12:42:16.271Z,99660.31
2019-03-22T12:44:45.729Z,99661.08
2019-03-22T12:47:15.085Z,99652.01
2019-03-22T12:49:44.644Z,99655.03
2019-03-22T12:52:14.097Z,99638.94
2019-03-22T12:54:43.671Z,99645.84
2019-03-22T12:57:12.992Z,99644.27
2019-03-22T12:59:42.465Z,99647.83
2019-03-22T13:02:12.063Z,99648.34
2019-03-22T13:04:41.560Z,99646.81
2019-03-22T13:07:11.264Z,99651.42
2019-03-22T13:09:40.792Z,99644.09
2019-03-22T13:12:10.278Z,99637.20
2019-03-22T13:14:39.741Z,99645.41
2019-03-22T13:17:28.609Z,99637.24
2019-03-22T13:19:58.102Z,99631.10
2019-03-22T13:22:27.620Z,99624.76
2019-03-22T13:24:58.580Z,99624.01
2019-03-22T13:27:28.074Z,99627.06
2019-03-22T13:29:57.529Z,99631.98
2019-03-22T13:32:27.035Z,99631.43
2019-03-22T13:34:56.502Z,99622.80
2019-03-22T13:37:25.995Z,99639.20
2019-03-22T13:39:55.899Z,99625.98
2019-03-22T13:42:44.664Z,99620.94
2019-03-22T13:45:14.556Z,99614.84
2019-03-22T13:47:44.055Z,99608.76
2019-03-22T13:50:14.687Z,99610.32
2019-03-22T13:52:44.518Z,99609.84
2019-03-22T13:55:14.396Z,99612.85
2019-03-22T13:57:43.894Z,99604.76
2019-03-22T14:00:32.793Z,99600.42
2019-03-22T14:03:03.265Z,99593.59
2019-03-22T14:05:33.032Z,99591.41
2019-03-22T14:08:03.893Z,99593.81
2019-03-22T14:10:35.693Z,99597.04
2019-03-22T14:13:07.297Z,99594.38
2019-03-22T14:15:37.200Z,99592.83
2019-03-22T14:18:07.095Z,99594.55
2019-03-22T14:20:36.568Z,99600.27
2019-03-22T14:23:06.409Z,99598.83
2019-03-22T14:25:35.899Z,99594.84
2019-03-22T14:28:05.639Z,99597.77
2019-03-22T14:30:35.397Z,99595.17
2019-03-22T14:33:12.949Z,99588.33
2019-03-22T14:35:36.244Z,99592.98
2019-03-22T14:38:45.853Z,99594.67
2019-03-22T14:41:15.360Z,99598.25
2019-03-22T14:43:44.828Z,99591.66
2019-03-22T14:46:14.577Z,99589.24
2019-03-22T14:48:44.062Z,99603.85
2019-03-22T14:51:32.851Z,99602.56
2019-03-22T14:54:02.319Z,99603.41
2019-03-22T14:56:31.829Z,99603.75
2019-03-22T14:59:01.317Z,99592.64
2019-03-22T15:01:30.840Z,99591.33
2019-03-22T15:04:00.293Z,99582.67
2019-03-22T15:06:29.907Z,99589.17
2019-03-22T15:08:59.743Z,99583.34
2019-03-22T15:11:29.210Z,99586.70
2019-03-22T15:14:00.360Z,99584.16
2019-03-22T15:16:31.470Z,99573.65
2019-03-22T15:19:02.539Z,99568.70
2019-03-22T15:21:33.700Z,99581.25
2019-03-22T15:24:04.799Z,99579.11
2019-03-22T15:26:35.934Z,99569.02
2019-03-22T15:29:07.138Z,99577.59
2019-03-22T15:31:38.209Z,99570.84
2019-03-22T15:34:09.313Z,99570.85
2019-03-22T15:36:40.433Z,99569.25
2019-03-22T15:39:11.758Z,99573.73
2019-03-22T15:42:00.722Z,99575.05
2019-03-22T15:44:30.212Z,99571.24
2019-03-22T15:46:59.716Z,99571.29
2019-03-22T15:49:29.218Z,99573.87
2019-03-22T15:51:58.702Z,99569.05
2019-03-22T15:54:28.438Z,99566.95
2019-03-22T15:56:57.941Z,99566.94
2019-03-22T15:59:27.429Z,99564.53
2019-03-22T16:01:56.906Z,99557.89
2019-03-22T16:04:26.395Z,99567.16
2019-03-22T16:06:55.890Z,99567.25
2019-03-22T16:09:26.320Z,99565.66
2019-03-22T16:11:56.020Z,99565.59
2019-03-22T16:14:25.484Z,99564.44
2019-03-22T16:16:54.946Z,99567.95
2019-03-22T16:19:24.468Z,99562.28
2019-03-22T16:21:54.097Z,99562.14
2019-03-22T16:24:23.598Z,99561.77
2019-03-22T16:26:53.318Z,99565.36
2019-03-22T16:29:22.789Z,99568.41
2019-03-22T16:31:52.218Z,99566.50
2019-03-22T16:34:21.724Z,99568.82
2019-03-22T16:36:51.188Z,99567.20
2019-03-22T16:39:20.691Z,99567.16
2019-03-22T16:41:50.194Z,99571.90
2019-03-22T16:44:19.679Z,99567.45
2019-03-22T16:47:08.501Z,99569.40
2019-03-22T16:49:38.028Z,99568.42
2019-03-22T16:52:07.489Z,99571.51
2019-03-22T16:54:37.020Z,99566.42
2019-03-22T16:57:06.578Z,99569.66
2019-03-22T16:59:36.211Z,99567.79
2019-03-22T17:02:05.856Z,99571.16
2019-03-22T17:04:35.365Z,99574.33
2019-03-22T17:07:04.884Z,99577.20
2019-03-22T17:09:34.391Z,99576.34
2019-03-22T17:12:03.864Z,99579.86
2019-03-22T17:14:33.338Z,99577.80
2019-03-22T17:17:02.845Z,99572.90
2019-03-22T17:19:32.310Z,99584.91
2019-03-22T17:22:01.955Z,99587.10
2019-03-22T17:24:31.483Z,99586.83
2019-03-22T17:27:00.941Z,99584.88
2019-03-22T17:29:30.412Z,99591.77
2019-03-22T17:31:59.922Z,99596.34
2019-03-22T17:34:29.430Z,99594.12
2019-03-22T17:36:58.906Z,99590.91
2019-03-22T17:39:28.432Z,99599.23
2019-03-22T17:41:57.918Z,99601.37
2019-03-22T17:44:27.388Z,99599.75
2019-03-22T17:46:57.274Z,99602.00
2019-03-22T17:49:48.512Z,99592.98
2019-03-22T17:52:17.306Z,99599.95
2019-03-22T17:54:46.791Z,99601.66
2019-03-22T17:57:35.576Z,99600.55
2019-03-22T18:00:08.458Z,99604.96
2019-03-22T18:02:37.919Z,99605.53
2019-03-22T18:05:26.770Z,99604.40
2019-03-22T18:07:56.336Z,99609.38
2019-03-22T18:10:26.770Z,99603.23
2019-03-22T18:12:57.998Z,99605.37
2019-03-22T18:15:46.854Z,99607.25
2019-03-22T18:18:35.593Z,99610.48
2019-03-22T18:21:05.064Z,99607.84
2019-03-22T18:23:35.878Z,99611.30
2019-03-22T18:26:05.839Z,99616.76
2019-03-22T18:28:35.302Z,99623.08
2019-03-22T18:31:24.158Z,99625.44
2019-03-22T18:33:53.646Z,99625.20
2019-03-22T18:36:23.099Z,99627.23
2019-03-22T18:38:52.591Z,99627.86
2019-03-22T18:41:22.101Z,99629.55
2019-03-22T18:43:51.656Z,99628.93
2019-03-22T18:46:21.189Z,99629.84
2019-03-22T18:48:50.675Z,99628.83
2019-03-22T18:51:20.133Z,99632.21
2019-03-22T18:53:49.657Z,99628.97
2019-03-22T18:56:19.127Z,99626.02
2019-03-22T18:58:48.637Z,99630.55
2019-03-22T19:01:18.142Z,99631.80
2019-03-22T19:03:47.646Z,99635.11
2019-03-22T19:06:17.126Z,99638.31
2019-03-22T19:08:46.640Z,99634.09
2019-03-22T19:11:16.105Z,99631.97
2019-03-22T19:13:45.598Z,99630.37
2019-03-22T19:16:15.118Z,99634.80
2019-03-22T19:18:44.756Z,99636.44
2019-03-22T19:21:14.226Z,99634.76
2019-03-22T19:23:43.717Z,99631.48
2019-03-22T19:26:13.210Z,99635.64
2019-03-22T19:28:42.697Z,99631.05
2019-03-22T19:31:12.197Z,99633.40
2019-03-22T19:33:41.685Z,99628.15
2019-03-22T19:36:11.170Z,99635.41
2019-03-22T19:38:41.040Z,99636.90
2019-03-22T19:41:29.906Z,99641.42
2019-03-22T19:43:59.414Z,99644.73
2019-03-22T19:46:28.895Z,99643.87
2019-03-22T19:48:58.417Z,99645.97
2019-03-22T19:51:27.922Z,99646.96
2019-03-22T19:53:57.381Z,99648.16
2019-03-22T19:56:26.873Z,99648.98
2019-03-22T19:58:56.377Z,99647.62
2019-03-22T20:01:25.864Z,99650.37
2019-03-22T20:03:55.323Z,99652.66
2019-03-22T20:06:24.794Z,99651.77
2019-03-22T20:08:54.277Z,99649.92
2019-03-22T20:11:23.944Z,99650.08
2019-03-22T20:13:53.503Z,99650.17
2019-03-22T20:16:42.308Z,99651.75
2019-03-22T20:19:11.791Z,99651.29
2019-03-22T20:21:41.276Z,99652.73
2019-03-22T20:24:10.764Z,99657.18
2019-03-22T20:26:40.267Z,99665.17
2019-03-22T20:29:09.744Z,99661.73
2019-03-22T20:31:39.237Z,99660.65
2019-03-22T20:34:08.742Z,99662.38
2019-03-22T20:36:38.222Z,99666.32
2019-03-22T20:39:08.219Z,99662.58
2019-03-22T20:41:37.694Z,99664.34
2019-03-22T20:44:07.176Z,99664.67
2019-03-22T20:46:36.671Z,99671.58
2019-03-22T20:49:06.184Z,99667.24
2019-03-22T20:51:36.580Z,99664.66
2019-03-22T20:54:06.036Z,99662.61
2019-03-22T20:56:35.555Z,99667.66
2019-03-22T20:59:05.368Z,99667.41
2019-03-22T21:01:34.831Z,99666.68
2019-03-22T21:04:05.846Z,99664.16
2019-03-22T21:06:35.360Z,99662.18
2019-03-22T21:09:06.556Z,99661.59
2019-03-22T21:11:36.231Z,99666.06
2019-03-22T21:14:05.880Z,99667.18
2019-03-22T21:16:35.428Z,99659.98
2019-03-22T21:19:05.000Z,99665.72
2019-03-22T21:21:36.577Z,99661.58
2019-03-22T21:24:05.740Z,99666.56
2019-03-22T21:26:54.562Z,99665.58
2019-03-22T21:29:26.977Z,99666.55
2019-03-22T21:31:56.448Z,99666.52
2019-03-22T21:34:25.919Z,99662.06
2019-03-22T21:36:55.377Z,99664.95
2019-03-22T21:39:24.827Z,99661.80
2019-03-22T21:41:54.400Z,99664.97
2019-03-22T21:44:23.873Z,99662.38
2019-03-22T21:46:53.367Z,99660.28
2019-03-22T21:49:22.875Z,99657.56
2019-03-22T21:51:52.349Z,99658.22
2019-03-22T21:54:21.892Z,99660.53
2019-03-22T21:56:51.397Z,99661.83
2019-03-22T21:59:20.855Z,99658.17
2019-03-22T22:01:50.338Z,99660.56
2019-03-22T22:04:19.849Z,99659.69
2019-03-22T22:06:49.309Z,99657.09
2019-03-22T22:09:18.783Z,99660.73
2019-03-22T22:11:48.292Z,99662.28
2019-03-22T22:14:17.747Z,99663.97
2019-03-22T22:16:47.236Z,99661.02
2019-03-22T22:19:16.914Z,99658.50
2019-03-22T22:21:46.433Z,99655.10
2019-03-22T22:24:35.251Z,99659.21
2019-03-22T22:27:13.527Z,99654.75
2019-03-22T22:29:36.004Z,99659.47
2019-03-22T22:32:07.063Z,99667.27
2019-03-22T22:34:36.520Z,99668.31
2019-03-22T22:37:06.267Z,99666.80
2019-03-22T22:39:35.765Z,99668.73
2019-03-22T22:42:05.523Z,99668.72
2019-03-22T22:44:34.992Z,99666.05
2019-03-22T22:47:04.567Z,99670.28
2019-03-22T22:49:34.315Z,99664.59
2019-03-22T22:52:03.842Z,99667.27
2019-03-22T22:54:33.717Z,99666.80
2019-03-22T22:57:03.210Z,99666.13
2019-03-22T22:59:32.680Z,99660.78
2019-03-22T23:02:02.552Z,99660.48
2019-03-22T23:04:32.327Z,99662.45
2019-03-22T23:07:01.896Z,99661.60
2019-03-22T23:09:31.405Z,99662.17
2019-03-22T23:12:00.861Z,99670.23
2019-03-22T23:14:31.863Z,99667.51
2019-03-22T23:17:01.384Z,99664.47
2019-03-22T23:19:30.840Z,99659.79
2019-03-22T23:22:00.298Z,99660.45
2019-03-22T23:24:29.824Z,99660.25
2019-03-22T23:26:59.274Z,99657.13
2019-03-22T23:29:28.738Z,99656.69
2019-03-22T23:31:58.227Z,99658.09
2019-03-22T23:34:27.701Z,99651.47
2019-03-22T23:36:57.154Z,99654.01
2019-03-22T23:39:26.674Z,99648.27
2019-03-22T23:41:56.136Z,99650.48
2019-03-22T23:44:25.597Z,99652.90
2019-03-22T23:46:55.419Z,99651.88
2019-03-22T23:49:24.896Z,99656.80
2019-03-22T23:51:54.380Z,99656.48
2019-03-22T23:54:23.851Z,99657.46
2019-03-22T23:56:53.408Z,99660.17
2019-03-22T23:59:22.868Z,99661.92
